Time;durP1;ratioP1;P1;durP2;ratioP2;P2;SDS_P1;SDS_P2;PMS_P1;PMS_P2;Temp;Humidity;BMP_temperature;BMP_pressure;BME280_temperature;BME280_humidity;BME280_pressure;Samples;Min_cycle;Max_cycle;Signal;HPM_P1;HPM_P2
2023/04/09 00:01:03;;;;;;;12.40;6.70;;;;;;;5.82;100.00;94827.59;5097147;28;20606;-75
2023/04/09 00:03:30;;;;;;;9.02;5.15;;;;;;;5.82;100.00;94830.28;5096093;28;20259;-75
2023/04/09 00:05:58;;;;;;;12.07;7.28;;;;;;;5.86;100.00;94829.44;5102428;28;20633;-74
2023/04/09 00:08:25;;;;;;;14.13;7.53;;;;;;;5.94;100.00;94838.75;5103091;28;20205;-76
2023/04/09 00:10:52;;;;;;;12.43;6.78;;;;;;;5.86;100.00;94836.69;5098757;28;20286;-76
2023/04/09 00:13:19;;;;;;;11.95;7.28;;;;;;;5.96;100.00;94831.19;5096403;28;20255;-74
2023/04/09 00:15:46;;;;;;;16.08;8.35;;;;;;;5.94;100.00;94838.75;5101317;28;20238;-75
2023/04/09 00:18:14;;;;;;;14.00;7.82;;;;;;;5.97;100.00;94838.16;5103137;28;20250;-74
2023/04/09 00:20:41;;;;;;;11.48;6.72;;;;;;;5.98;100.00;94851.31;5089906;28;20205;-75
2023/04/09 00:23:09;;;;;;;14.02;6.53;;;;;;;6.00;100.00;94848.34;5103489;28;20248;-75
2023/04/09 00:25:36;;;;;;;17.08;7.13;;;;;;;5.98;100.00;94845.13;5090131;28;20229;-75
2023/04/09 00:28:03;;;;;;;8.18;5.38;;;;;;;5.93;100.00;94837.13;5103409;28;20266;-75
2023/04/09 00:30:30;;;;;;;10.73;5.97;;;;;;;5.93;100.00;94837.13;5100226;28;20225;-75
2023/04/09 00:32:57;;;;;;;9.23;5.75;;;;;;;5.93;100.00;94843.31;5096569;28;20255;-74
2023/04/09 00:35:24;;;;;;;14.10;5.32;;;;;;;5.95;100.00;94840.34;5099183;28;20733;-76
2023/04/09 00:37:51;;;;;;;6.55;4.28;;;;;;;5.97;100.00;94840.84;5103184;28;20198;-77
2023/04/09 00:40:19;;;;;;;11.95;5.90;;;;;;;5.97;100.00;94838.94;5100843;28;20210;-74
2023/04/09 00:42:46;;;;;;;14.05;6.65;;;;;;;5.99;100.00;94841.34;5096386;28;20694;-76
2023/04/09 00:45:13;;;;;;;10.02;5.68;;;;;;;5.94;100.00;94849.50;5097806;28;20205;-76
2023/04/09 00:47:41;;;;;;;10.60;6.20;;;;;;;5.97;100.00;94848.91;5070839;28;20207;-75
2023/04/09 00:50:09;;;;;;;8.93;4.53;;;;;;;5.87;100.00;94838.28;5092521;28;20217;-75
2023/04/09 00:52:36;;;;;;;5.82;3.72;;;;;;;5.83;100.00;94842.66;5095589;28;20269;-75
2023/04/09 00:55:05;;;;;;;7.07;3.05;;;;;;;5.90;100.00;94848.47;5109758;28;20214;-76
2023/04/09 00:57:33;;;;;;;7.93;4.78;;;;;;;5.85;100.00;94845.84;5095962;28;20292;-76
2023/04/09 01:00:00;;;;;;;4.50;2.63;;;;;;;5.92;100.00;94851.66;5096380;28;20209;-75
2023/04/09 01:02:27;;;;;;;11.80;5.75;;;;;;;5.83;100.00;94842.66;5102167;28;20686;-75
2023/04/09 01:04:54;;;;;;;5.25;3.47;;;;;;;5.85;100.00;94840.47;5102026;28;20262;-74
2023/04/09 01:07:31;;;;;;;9.95;4.57;;;;;;;5.82;100.00;94846.41;5095182;28;20292;-76
2023/04/09 01:10:05;;;;;;;12.02;5.55;;;;;;;5.76;100.00;94847.56;5095256;28;20206;-76
2023/04/09 01:12:38;;;;;;;6.72;3.83;;;;;;;5.76;100.00;94852.94;5100388;28;20266;-75
2023/04/09 01:15:08;;;;;;;9.65;4.18;;;;;;;5.64;100.00;94845.34;5101893;28;20682;-75
2023/04/09 01:17:41;;;;;;;7.50;4.55;;;;;;;5.60;100.00;94839.72;5078252;28;20284;-75
2023/04/09 01:20:13;;;;;;;7.85;3.70;;;;;;;5.61;100.00;94844.03;5099910;28;20248;-75
2023/04/09 01:22:55;;;;;;;9.82;6.13;;;;;;;5.67;100.00;94848.25;5101089;28;20602;-74
2023/04/09 01:25:37;;;;;;;13.82;6.95;;;;;;;5.63;100.00;94849.91;5084240;28;20286;-75
2023/04/09 01:28:16;;;;;;;13.70;5.90;;;;;;;5.62;100.00;94847.50;5088603;28;20611;-74
2023/04/09 01:30:47;;;;;;;12.63;6.57;;;;;;;5.61;100.00;94848.59;5083335;28;20320;-74
2023/04/09 01:33:14;;;;;;;14.52;6.45;;;;;;;5.67;100.00;94845.56;5101836;28;20285;-74
2023/04/09 01:35:44;;;;;;;12.98;7.00;;;;;;;5.80;100.00;94845.91;5100835;28;20262;-75
2023/04/09 01:38:13;;;;;;;11.35;6.75;;;;;;;5.83;100.00;94856.09;5094583;28;20205;-76
2023/04/09 01:40:41;;;;;;;11.32;6.68;;;;;;;5.89;100.00;94852.25;5094248;28;20248;-76
2023/04/09 01:43:10;;;;;;;11.68;6.18;;;;;;;5.85;100.00;94851.22;5083044;28;20695;-76
2023/04/09 01:45:38;;;;;;;11.10;6.15;;;;;;;5.76;100.00;94855.63;5079731;28;20214;-76
2023/04/09 01:48:05;;;;;;;10.73;6.13;;;;;;;5.89;100.00;94858.41;5084026;28;20258;-76
2023/04/09 01:50:32;;;;;;;8.48;5.25;;;;;;;5.69;100.00;94851.44;5094689;28;20226;-74
2023/04/09 01:53:01;;;;;;;10.18;5.57;;;;;;;5.62;100.00;94853.69;5099871;27;20291;-75
2023/04/09 01:55:28;;;;;;;9.02;5.40;;;;;;;5.68;100.00;94847.16;5102932;28;20676;-75
2023/04/09 01:57:54;;;;;;;12.02;6.75;;;;;;;5.53;100.00;94844.69;5099710;28;20240;-75
2023/04/09 02:00:24;;;;;;;11.77;6.40;;;;;;;5.56;100.00;94848.69;5101242;28;20595;-75
2023/04/09 02:02:59;;;;;;;9.55;4.85;;;;;;;5.56;100.00;94854.84;5097057;28;20683;-75
2023/04/09 02:05:31;;;;;;;10.32;5.38;;;;;;;5.57;100.00;94848.41;5095123;28;20204;-75
2023/04/09 02:08:01;;;;;;;9.50;5.88;;;;;;;5.69;100.00;94848.75;5097337;28;20198;-75
2023/04/09 02:10:31;;;;;;;9.88;5.80;;;;;;;5.58;100.00;94858.06;5101417;28;20214;-77
2023/04/09 02:13:00;;;;;;;11.95;6.13;;;;;;;5.57;100.00;94866.41;5099911;28;20201;-76
2023/04/09 02:15:31;;;;;;;13.20;6.78;;;;;;;5.51;100.00;94857.59;5093693;28;20240;-75
2023/04/09 02:17:58;;;;;;;10.98;5.88;;;;;;;5.56;100.00;94860.22;5094693;28;20210;-75
2023/04/09 02:20:25;;;;;;;11.00;6.53;;;;;;;5.50;100.00;94849.84;5073739;28;20919;-74
2023/04/09 02:22:52;;;;;;;13.35;6.45;;;;;;;5.49;100.00;94849.03;5101004;28;20195;-74
2023/04/09 02:25:19;;;;;;;12.02;6.90;;;;;;;5.57;100.00;94840.34;5080038;28;20199;-75
2023/04/09 02:27:46;;;;;;;12.73;6.63;;;;;;;5.55;100.00;94850.56;5095477;28;20664;-75
2023/04/09 02:30:12;;;;;;;11.45;6.50;;;;;;;5.53;100.00;94847.38;5095007;28;20660;-74
2023/04/09 02:32:40;;;;;;;13.18;7.07;;;;;;;5.46;100.00;94855.00;5094118;28;20665;-75
2023/04/09 02:35:08;;;;;;;12.35;6.75;;;;;;;5.51;100.00;94851.44;5099874;28;20297;-76
2023/04/09 02:37:34;;;;;;;18.02;6.97;;;;;;;5.53;100.00;94844.69;5101153;28;20334;-75
2023/04/09 02:40:01;;;;;;;13.45;6.20;;;;;;;5.60;100.00;94849.72;5096620;28;20205;-76
2023/04/09 02:42:28;;;;;;;14.73;7.05;;;;;;;5.55;100.00;94836.34;5094168;28;20202;-75
2023/04/09 02:44:55;;;;;;;13.07;6.97;;;;;;;5.53;100.00;94847.38;5099126;28;20619;-76
2023/04/09 02:47:22;;;;;;;14.10;7.32;;;;;;;5.46;100.00;94855.00;5100906;28;20210;-75
2023/04/09 02:49:50;;;;;;;13.45;7.55;;;;;;;5.40;100.00;94845.41;5087392;28;20202;-75
2023/04/09 02:52:19;;;;;;;13.32;7.32;;;;;;;5.26;100.00;94844.53;5100663;28;20305;-75
2023/04/09 02:54:45;;;;;;;14.63;6.93;;;;;;;5.20;100.00;94845.66;5097027;28;20283;-75
2023/04/09 02:57:12;;;;;;;13.15;6.65;;;;;;;5.26;100.00;94839.16;5094246;28;20233;-75
2023/04/09 02:59:39;;;;;;;12.15;6.13;;;;;;;5.29;100.00;94833.22;5098134;28;20205;-74
2023/04/09 03:02:06;;;;;;;14.45;6.85;;;;;;;5.23;100.00;94835.16;5101271;28;20202;-75
2023/04/09 03:04:32;;;;;;;12.10;6.43;;;;;;;5.33;100.00;94836.88;5097359;28;20259;-76
2023/04/09 03:07:01;;;;;;;19.88;10.77;;;;;;;5.28;100.00;94836.97;5093752;28;20202;-75
2023/04/09 03:09:28;;;;;;;31.00;14.02;;;;;;;5.30;100.00;94834.81;5097091;28;20661;-75
2023/04/09 03:11:56;;;;;;;36.28;14.68;;;;;;;5.30;100.00;94840.19;5100597;28;20234;-76
2023/04/09 03:14:22;;;;;;;20.00;10.90;;;;;;;5.25;100.00;94843.72;5098366;28;20228;-76
2023/04/09 03:16:49;;;;;;;20.42;10.50;;;;;;;5.10;100.00;94827.00;5093357;28;20234;-74
2023/04/09 03:19:16;;;;;;;13.52;6.43;;;;;;;5.26;100.00;94839.94;5096374;28;20745;-75
2023/04/09 03:21:43;;;;;;;11.88;6.60;;;;;;;5.24;100.00;94841.31;5100925;28;20221;-75
2023/04/09 03:24:11;;;;;;;11.95;6.97;;;;;;;5.26;100.00;94836.47;5075707;28;20215;-74
2023/04/09 03:26:38;;;;;;;13.20;7.32;;;;;;;5.24;100.00;94835.94;5098889;28;20255;-75
2023/04/09 03:29:05;;;;;;;13.75;7.30;;;;;;;5.17;100.00;94835.50;5079719;28;20272;-74
2023/04/09 03:31:32;;;;;;;14.05;8.23;;;;;;;5.09;100.00;94839.63;5096151;28;20274;-74
2023/04/09 03:33:59;;;;;;;13.65;7.53;;;;;;;4.92;100.00;94834.72;5098610;28;20252;-75
2023/04/09 03:36:26;;;;;;;12.50;7.32;;;;;;;4.93;100.00;94847.06;5103957;28;20202;-75
2023/04/09 03:38:53;;;;;;;10.48;6.07;;;;;;;4.87;100.00;94836.69;5077647;28;20677;-75
2023/04/09 03:41:22;;;;;;;12.18;6.53;;;;;;;4.72;100.00;94837.66;5096189;28;20213;-75
2023/04/09 03:43:48;;;;;;;7.50;4.65;;;;;;;4.72;100.00;94848.38;5110824;28;20255;-74
2023/04/09 03:46:16;;;;;;;11.50;7.20;;;;;;;4.79;100.00;94846.16;5097457;28;20206;-76
2023/04/09 03:48:43;;;;;;;10.18;5.90;;;;;;;4.86;100.00;94843.94;5097770;28;20194;-75
2023/04/09 03:51:11;;;;;;;8.63;5.07;;;;;;;4.92;100.00;94836.63;5083568;28;21087;-75
2023/04/09 03:53:38;;;;;;;9.90;5.82;;;;;;;4.98;100.00;94841.63;5097514;28;20205;-75
2023/04/09 03:56:05;;;;;;;11.88;6.45;;;;;;;5.03;100.00;94853.41;5097499;28;20521;-75
2023/04/09 03:58:34;;;;;;;14.25;6.45;;;;;;;5.00;100.00;94852.91;5095957;28;20206;-74
2023/04/09 04:01:01;;;;;;;12.07;6.07;;;;;;;5.06;100.00;94855.53;5084832;28;20202;-75
2023/04/09 04:03:28;;;;;;;11.25;6.07;;;;;;;5.00;100.00;94852.91;5096894;28;20259;-76
2023/04/09 04:06:01;;;;;;;7.93;3.90;;;;;;;5.16;100.00;94847.34;5103320;28;20214;-75
2023/04/09 04:08:27;;;;;;;16.67;8.13;;;;;;;5.23;100.00;94850.47;5103222;28;20205;-75
2023/04/09 04:10:54;;;;;;;14.27;7.32;;;;;;;5.20;100.00;94851.03;5098400;28;20206;-75
2023/04/09 04:13:21;;;;;;;11.00;7.28;;;;;;;5.27;100.00;94846.91;5096283;28;20342;-75
2023/04/09 04:15:49;;;;;;;10.77;4.47;;;;;;;5.42;100.00;94848.59;5101447;28;20287;-76
2023/04/09 04:18:16;;;;;;;12.27;6.57;;;;;;;5.49;100.00;94849.03;5103449;28;20739;-74
2023/04/09 04:20:43;;;;;;;13.45;7.38;;;;;;;5.52;100.00;94848.47;5080808;28;20256;-74
2023/04/09 04:23:09;;;;;;;9.57;5.40;;;;;;;5.55;99.88;94847.88;5099422;28;20206;-75
2023/04/09 04:25:36;;;;;;;13.27;6.95;;;;;;;5.57;99.69;94845.72;5099870;28;20201;-73
2023/04/09 04:28:03;;;;;;;7.03;3.42;;;;;;;5.66;99.54;94852.03;5090641;28;20622;-75
2023/04/09 04:30:29;;;;;;;15.80;6.32;;;;;;;5.67;99.47;94850.94;5082646;28;20224;-75
2023/04/09 04:32:57;;;;;;;11.50;6.13;;;;;;;5.68;99.36;94855.22;5103690;28;20244;-75
2023/04/09 04:35:24;;;;;;;8.90;4.95;;;;;;;5.68;99.26;94846.34;5080209;28;20207;-77
2023/04/09 04:37:51;;;;;;;6.47;4.60;;;;;;;5.65;99.31;94853.09;5076796;28;20484;-78
2023/04/09 04:40:18;;;;;;;11.93;7.15;;;;;;;5.68;99.19;94851.72;5099724;28;20609;-75
2023/04/09 04:42:45;;;;;;;9.07;5.25;;;;;;;5.75;98.95;94851.34;5103464;28;20254;-78
2023/04/09 04:45:11;;;;;;;16.20;7.75;;;;;;;5.80;98.33;94843.22;5100289;28;20247;-76
2023/04/09 04:47:38;;;;;;;15.60;7.85;;;;;;;5.90;98.24;94853.84;5091945;28;20202;-75
2023/04/09 04:50:08;;;;;;;9.05;3.60;;;;;;;6.03;97.84;94850.41;5100994;28;20197;-75
2023/04/09 04:52:36;;;;;;;10.60;6.65;;;;;;;6.02;97.63;94856.88;5095349;28;20271;-76
2023/04/09 04:55:02;;;;;;;11.82;6.63;;;;;;;6.09;97.83;94851.94;5098002;28;20217;-77
2023/04/09 04:57:29;;;;;;;10.60;5.45;;;;;;;6.23;97.24;94857.38;5094046;28;20674;-78
2023/04/09 04:59:56;;;;;;;14.95;7.00;;;;;;;6.35;96.85;94858.50;5097710;28;20657;-77
2023/04/09 05:02:23;;;;;;;14.27;6.95;;;;;;;6.38;95.94;94860.59;5102282;28;20248;-77
2023/04/09 05:04:49;;;;;;;15.68;7.38;;;;;;;6.55;95.71;94864.63;5101500;28;20198;-77
2023/04/09 05:07:17;;;;;;;8.25;4.70;;;;;;;6.68;94.62;94864.66;5096292;28;20220;-76
2023/04/09 05:09:44;;;;;;;13.52;6.65;;;;;;;6.79;94.20;94859.88;5097690;28;20254;-77
2023/04/09 05:12:11;;;;;;;13.65;7.40;;;;;;;6.88;93.89;94858.09;5103068;28;20226;-76
2023/04/09 05:14:38;;;;;;;10.73;6.32;;;;;;;7.04;93.34;94864.78;5089009;28;20662;-76
2023/04/09 05:17:05;;;;;;;12.63;5.50;;;;;;;7.09;92.66;94863.88;5102762;28;20242;-77
2023/04/09 05:19:31;;;;;;;16.23;6.20;;;;;;;7.36;91.48;94863.88;5101596;28;20599;-75
2023/04/09 05:21:58;;;;;;;10.85;4.97;;;;;;;7.33;90.10;94863.66;5103897;28;20259;-76
2023/04/09 05:24:26;;;;;;;8.85;5.07;;;;;;;7.25;89.96;94867.06;5088905;28;20244;-76
2023/04/09 05:26:53;;;;;;;11.18;6.03;;;;;;;7.34;89.98;94870.66;5081521;28;20201;-75
2023/04/09 05:29:20;;;;;;;8.25;4.18;;;;;;;7.48;89.59;94863.34;5095054;28;20243;-74
2023/04/09 05:31:46;;;;;;;11.25;6.30;;;;;;;7.37;89.04;94853.88;5081376;28;20725;-76
2023/04/09 05:34:13;;;;;;;9.77;5.18;;;;;;;7.56;88.41;94857.25;5108726;28;20250;-77
2023/04/09 05:36:40;;;;;;;18.88;7.90;;;;;;;7.74;88.46;94859.00;5094465;28;20205;-76
2023/04/09 05:39:06;;;;;;;14.93;7.30;;;;;;;7.79;88.56;94850.78;5095035;28;20346;-76
2023/04/09 05:41:36;;;;;;;12.07;6.13;;;;;;;7.69;88.29;94861.00;5068255;28;20280;-74
2023/04/09 05:44:02;;;;;;;12.48;6.88;;;;;;;7.36;88.92;94868.47;5067910;28;20203;-74
2023/04/09 05:46:30;;;;;;;11.70;5.43;;;;;;;7.52;89.69;94868.94;5067987;28;20202;-76
2023/04/09 05:48:57;;;;;;;11.60;6.28;;;;;;;7.62;89.05;94864.13;5095617;28;20202;-75
2023/04/09 05:51:23;;;;;;;15.27;7.85;;;;;;;7.50;88.88;94874.63;5094704;28;20225;-76
2023/04/09 05:53:51;;;;;;;7.20;4.28;;;;;;;7.60;87.97;94868.22;5094936;28;20283;-77
2023/04/09 05:56:18;;;;;;;19.20;8.70;;;;;;;7.66;88.69;94862.41;5100445;28;20202;-74
2023/04/09 05:58:46;;;;;;;10.07;5.35;;;;;;;8.11;86.75;94857.06;5101260;28;20258;-74
2023/04/09 06:01:13;;;;;;;15.05;6.43;;;;;;;8.54;83.85;94854.69;5096358;28;20197;-74
2023/04/09 06:03:40;;;;;;;14.57;6.95;;;;;;;8.88;81.80;94854.09;5106269;28;20259;-76
2023/04/09 06:06:08;;;;;;;12.75;6.68;;;;;;;8.98;81.54;94853.81;5096428;28;20204;-74
2023/04/09 06:08:35;;;;;;;14.63;6.97;;;;;;;9.15;80.95;94863.91;5094105;28;20665;-75
2023/04/09 06:11:02;;;;;;;12.80;6.65;;;;;;;9.34;80.10;94855.53;5098846;28;20198;-74
2023/04/09 06:13:29;;;;;;;9.45;4.25;;;;;;;9.06;79.81;94861.16;5074198;28;20300;-75
2023/04/09 06:15:57;;;;;;;8.98;5.80;;;;;;;8.75;80.50;94868.47;5078105;28;20240;-75
2023/04/09 06:18:23;;;;;;;8.55;4.45;;;;;;;8.38;81.01;94862.38;5097653;28;20260;-76
2023/04/09 06:20:50;;;;;;;10.52;5.30;;;;;;;8.36;80.63;94869.97;5097653;28;20197;-75
2023/04/09 06:23:17;;;;;;;11.25;5.53;;;;;;;8.64;80.37;94865.25;5103949;28;20198;-74
2023/04/09 06:25:44;;;;;;;11.40;5.65;;;;;;;8.89;79.29;94867.28;5098457;28;20717;-75
2023/04/09 06:28:11;;;;;;;10.07;5.43;;;;;;;9.82;74.06;94861.69;5095650;28;20205;-73
2023/04/09 06:30:38;;;;;;;9.23;5.45;;;;;;;10.43;72.10;94864.41;5083112;28;20572;-74
2023/04/09 06:33:06;;;;;;;9.73;4.68;;;;;;;10.55;70.34;94845.59;5100321;28;20642;-76
2023/04/09 06:35:32;;;;;;;6.18;3.88;;;;;;;10.55;70.37;94846.38;5076006;28;20550;-77
2023/04/09 06:37:59;;;;;;;10.68;5.32;;;;;;;10.26;70.40;94859.78;5099730;28;20206;-73
2023/04/09 06:40:26;;;;;;;14.40;4.93;;;;;;;10.62;69.40;94860.25;5099777;28;20549;-74
2023/04/09 06:42:52;;;;;;;7.43;5.13;;;;;;;10.59;69.31;94865.50;5093899;28;20209;-76
2023/04/09 06:45:20;;;;;;;8.63;4.80;;;;;;;10.75;68.92;94857.66;5096079;28;20206;-73
2023/04/09 06:47:47;;;;;;;6.32;3.63;;;;;;;11.01;67.62;94859.19;5101089;28;20301;-73
2023/04/09 06:50:15;;;;;;;7.95;4.40;;;;;;;11.18;67.03;94868.38;5098921;28;20244;-73
2023/04/09 06:52:42;;;;;;;9.05;5.05;;;;;;;11.39;66.14;94861.88;5093389;28;20229;-73
2023/04/09 06:55:10;;;;;;;8.65;4.72;;;;;;;11.71;65.81;94860.44;5095553;28;20224;-73
2023/04/09 06:57:38;;;;;;;9.48;5.22;;;;;;;12.54;63.30;94854.25;5100661;28;20684;-73
2023/04/09 07:00:05;;;;;;;8.43;4.55;;;;;;;12.30;64.78;94854.16;5099625;28;20201;-79
2023/04/09 07:02:32;;;;;;;4.95;3.58;;;;;;;11.29;66.21;94854.13;5097030;28;20194;-77
2023/04/09 07:04:59;;;;;;;6.65;4.30;;;;;;;10.68;67.80;94861.66;5098810;28;20219;-83
2023/04/09 07:07:27;;;;;;;7.57;4.55;;;;;;;10.47;68.84;94870.78;5105196;28;20634;-74
2023/04/09 07:09:54;;;;;;;8.70;4.70;;;;;;;11.01;67.63;94866.53;5104267;28;20242;-75
2023/04/09 07:12:27;;;;;;;6.65;4.93;;;;;;;10.12;69.18;94869.97;5098085;28;20776;-80
2023/04/09 07:14:57;;;;;;;9.52;5.82;;;;;;;10.12;70.74;94869.97;5098144;28;20206;-75
2023/04/09 07:17:24;;;;;;;6.45;3.72;;;;;;;9.99;71.07;94872.50;5103172;28;20202;-74
2023/04/09 07:19:52;;;;;;;8.10;4.47;;;;;;;10.17;69.88;94872.53;5104428;28;20223;-75
2023/04/09 07:22:20;;;;;;;7.15;4.38;;;;;;;10.18;69.94;94868.69;5099411;28;20209;-75
2023/04/09 07:24:52;;;;;;;7.70;4.40;;;;;;;10.72;68.59;94861.00;5077547;28;20673;-76
2023/04/09 07:27:19;;;;;;;10.95;5.45;;;;;;;11.97;65.71;94868.44;5091962;28;20597;-76
2023/04/09 07:29:46;;;;;;;14.15;8.50;;;;;;;13.11;61.73;94853.50;5093025;28;20190;-75
2023/04/09 07:32:13;;;;;;;7.03;5.15;;;;;;;11.67;62.14;94864.13;5079778;28;20226;-74
2023/04/09 07:34:40;;;;;;;7.88;4.70;;;;;;;12.16;61.80;94853.63;5101163;28;20722;-74
2023/04/09 07:37:07;;;;;;;5.32;3.47;;;;;;;12.42;60.88;94865.88;5102015;28;21024;-76
2023/04/09 07:39:34;;;;;;;5.40;3.85;;;;;;;11.05;63.82;94864.75;5097203;28;20544;-73
2023/04/09 07:42:04;;;;;;;5.53;3.53;;;;;;;10.30;65.82;94879.72;5100099;28;20203;-79
2023/04/09 07:44:33;;;;;;;4.20;2.33;;;;;;;10.40;66.73;94871.25;5104375;28;20317;-75
2023/04/09 07:47:00;;;;;;;4.72;3.63;;;;;;;10.30;67.05;94882.41;5102560;28;20208;-79
2023/04/09 07:49:27;;;;;;;6.57;3.47;;;;;;;9.98;68.74;94870.91;5096629;28;20194;-74
2023/04/09 07:51:54;;;;;;;5.72;3.47;;;;;;;9.99;68.79;94880.63;5098639;28;20222;-73
2023/04/09 07:54:21;;;;;;;5.70;3.72;;;;;;;10.62;67.97;94890.03;5104202;28;20222;-74
2023/04/09 07:56:47;;;;;;;11.10;3.65;;;;;;;11.29;65.74;94880.44;5078418;28;20211;-75
2023/04/09 07:59:16;;;;;;;7.30;4.32;;;;;;;11.29;65.20;94881.25;5103331;28;20255;-77
2023/04/09 08:01:43;;;;;;;4.30;3.08;;;;;;;11.60;64.50;94886.38;5102855;28;20586;-74
2023/04/09 08:04:11;;;;;;;4.80;3.10;;;;;;;11.44;63.78;94892.66;5097001;28;20197;-81
2023/04/09 08:06:38;;;;;;;3.45;2.17;;;;;;;11.99;63.02;94896.06;5097133;28;20195;-81
2023/04/09 08:09:05;;;;;;;10.40;5.30;;;;;;;11.45;64.41;94894.28;5103308;28;20206;-78
2023/04/09 08:11:32;;;;;;;8.30;4.43;;;;;;;10.86;66.08;94883.28;5103516;28;20258;-75
2023/04/09 08:14:01;;;;;;;6.78;3.97;;;;;;;11.14;65.40;94894.53;5082706;28;20726;-76
2023/04/09 08:16:30;;;;;;;8.57;5.35;;;;;;;11.50;63.89;94900.28;5094825;28;20234;-73
2023/04/09 08:18:59;;;;;;;6.05;4.13;;;;;;;10.79;66.07;94901.97;5084942;28;20312;-74
2023/04/09 08:21:26;;;;;;;7.53;5.45;;;;;;;10.76;65.78;94906.13;5096251;28;20202;-76
2023/04/09 08:23:54;;;;;;;10.43;5.20;;;;;;;10.01;68.14;94895.75;5091975;28;20570;-74
2023/04/09 08:26:21;;;;;;;11.80;6.65;;;;;;;10.21;68.18;94895.97;5075381;28;20237;-74
2023/04/09 08:28:48;;;;;;;7.45;4.00;;;;;;;9.97;68.49;94895.59;5100014;28;20216;-76
2023/04/09 08:31:15;;;;;;;9.38;5.10;;;;;;;10.28;68.18;94898.19;5092409;28;20243;-75
2023/04/09 08:33:43;;;;;;;7.80;4.15;;;;;;;9.83;69.22;94895.75;5095614;28;20237;-76
2023/04/09 08:36:10;;;;;;;8.90;5.25;;;;;;;9.79;70.13;94908.31;5080197;28;20199;-73
2023/04/09 08:38:37;;;;;;;9.05;4.47;;;;;;;9.70;70.33;94902.09;5095160;28;20654;-78
2023/04/09 08:41:04;;;;;;;11.50;5.82;;;;;;;9.66;70.88;94898.41;5087017;28;20695;-73
2023/04/09 08:43:32;;;;;;;7.18;3.92;;;;;;;10.37;68.75;94895.50;5083540;28;20609;-76
2023/04/09 08:46:02;;;;;;;6.32;3.80;;;;;;;10.11;69.61;94907.09;5087273;28;20723;-74
2023/04/09 08:48:29;;;;;;;4.22;2.40;;;;;;;9.75;70.98;94891.09;5082757;28;20246;-74
2023/04/09 08:50:57;;;;;;;9.75;5.63;;;;;;;9.98;70.08;94902.59;5088052;28;20289;-73
2023/04/09 08:53:26;;;;;;;7.75;4.75;;;;;;;9.73;70.53;94895.22;5080290;28;20271;-74
2023/04/09 08:55:53;;;;;;;8.30;4.30;;;;;;;9.69;70.62;94902.41;5082727;28;20231;-74
2023/04/09 08:58:19;;;;;;;9.13;3.88;;;;;;;9.75;70.66;94903.81;5088186;28;20198;-72
2023/04/09 09:00:49;;;;;;;5.38;3.28;;;;;;;10.01;70.38;94903.88;5084139;28;20720;-74
2023/04/09 09:03:16;;;;;;;10.65;5.65;;;;;;;10.59;69.19;94890.69;5082009;28;20198;-73
2023/04/09 09:05:45;;;;;;;8.02;5.13;;;;;;;9.82;70.09;94891.44;5088026;28;20194;-72
2023/04/09 09:08:22;;;;;;;9.65;6.60;;;;;;;9.55;72.11;94886.28;5087512;28;20194;-74
2023/04/09 09:10:49;;;;;;;6.70;3.92;;;;;;;9.93;70.42;94895.44;5073942;28;20240;-74
2023/04/09 09:13:21;;;;;;;8.80;4.20;;;;;;;10.22;68.65;94869.69;5074812;28;20219;-80
2023/04/09 09:15:49;;;;;;;10.85;5.53;;;;;;;10.61;66.97;94874.09;5075801;28;20230;-76
2023/04/09 09:18:18;;;;;;;9.00;5.07;;;;;;;10.72;67.82;94877.28;5082053;28;20214;-74
2023/04/09 09:20:44;;;;;;;7.53;4.35;;;;;;;10.82;67.04;94871.50;5089641;28;20199;-74
2023/04/09 09:23:11;;;;;;;12.95;7.95;;;;;;;11.40;66.43;94871.63;5084774;28;20191;-74
2023/04/09 09:25:41;;;;;;;9.38;4.03;;;;;;;11.23;64.90;94876.31;5080219;28;20251;-71
2023/04/09 09:28:09;;;;;;;8.10;4.55;;;;;;;11.15;64.75;94875.25;5100070;28;20262;-76
2023/04/09 09:30:38;;;;;;;6.85;4.65;;;;;;;11.34;64.73;94870.19;5089913;28;20281;-75
2023/04/09 09:33:06;;;;;;;6.82;3.75;;;;;;;11.21;65.46;94873.94;5083988;28;20245;-77
2023/04/09 09:35:48;;;;;;;5.68;3.42;;;;;;;10.83;65.67;94873.09;5078987;28;20209;-76
2023/04/09 09:38:16;;;;;;;5.90;4.00;;;;;;;10.76;64.74;94875.53;5071757;28;20289;-81
2023/04/09 09:40:44;;;;;;;8.45;5.60;;;;;;;11.07;64.69;94867.91;5080464;28;20248;-73
2023/04/09 09:43:14;;;;;;;5.13;3.75;;;;;;;11.72;62.78;94850.38;5077456;28;20202;-74
2023/04/09 09:45:42;;;;;;;4.28;3.38;;;;;;;11.13;63.47;94866.63;5087321;28;20623;-79
2023/04/09 09:48:10;;;;;;;5.15;2.83;;;;;;;11.15;63.46;94858.16;5084062;28;20198;-75
2023/04/09 09:50:40;;;;;;;5.97;3.53;;;;;;;11.74;60.77;94853.56;5075883;28;20198;-74
2023/04/09 09:53:08;;;;;;;10.38;4.90;;;;;;;12.21;60.45;94840.63;5090416;28;20233;-73
2023/04/09 09:55:39;;;;;;;5.47;3.72;;;;;;;12.26;59.21;94842.34;5097158;28;20210;-75
2023/04/09 09:58:12;;;;;;;3.78;3.03;;;;;;;11.93;60.39;94845.78;5078043;28;20362;-76
2023/04/09 10:00:40;;;;;;;12.73;7.68;;;;;;;11.58;61.67;94844.41;5084996;28;20805;-79
2023/04/09 10:03:22;;;;;;;9.25;7.15;;;;;;;11.97;60.36;94846.72;5098473;28;20208;-73
2023/04/09 10:05:50;;;;;;;7.43;5.32;;;;;;;11.60;60.41;94844.88;5091628;28;20270;-74
2023/04/09 10:08:17;;;;;;;6.10;3.65;;;;;;;11.52;60.59;94838.38;5081448;28;20203;-77
2023/04/09 10:10:45;;;;;;;8.88;4.60;;;;;;;11.47;61.42;94844.00;5087470;28;20206;-71
2023/04/09 10:13:20;;;;;;;9.90;6.70;;;;;;;12.08;59.54;94831.63;5078294;28;20943;-74
2023/04/09 10:15:48;;;;;;;7.50;4.70;;;;;;;11.69;60.52;94829.34;5094433;28;20366;-73
2023/04/09 10:18:17;;;;;;;8.13;4.25;;;;;;;12.58;58.20;94825.25;5091759;28;20206;-76
2023/04/09 10:20:51;;;;;;;5.20;3.70;;;;;;;11.80;59.98;94825.13;5076690;28;20207;-74
2023/04/09 10:23:31;;;;;;;5.10;3.78;;;;;;;12.41;58.01;94811.88;5070495;28;20226;-76
2023/04/09 10:25:57;;;;;;;4.93;3.38;;;;;;;12.76;57.73;94817.72;5076847;28;20595;-74
2023/04/09 10:28:26;;;;;;;4.97;3.30;;;;;;;12.63;56.55;94814.19;5087946;28;20623;-80
2023/04/09 10:30:54;;;;;;;6.32;3.65;;;;;;;12.86;56.60;94800.97;5081285;28;20199;-74
2023/04/09 10:33:25;;;;;;;6.03;3.95;;;;;;;13.25;55.33;94810.47;5085634;28;20227;-73
2023/04/09 10:35:52;;;;;;;7.68;5.15;;;;;;;12.51;56.11;94806.00;5083194;28;20206;-79
2023/04/09 10:38:33;;;;;;;8.55;6.88;;;;;;;13.25;56.51;94807.75;5094227;28;20207;-74
2023/04/09 10:41:07;;;;;;;5.47;3.88;;;;;;;14.18;53.64;94793.06;5096820;28;20193;-75
2023/04/09 10:43:36;;;;;;;6.95;4.72;;;;;;;14.38;53.19;94782.31;5081858;28;20263;-75
2023/04/09 10:46:05;;;;;;;4.30;3.08;;;;;;;14.11;52.57;94790.13;5092632;28;20198;-73
2023/04/09 10:48:35;;;;;;;8.13;4.68;;;;;;;14.16;53.19;94792.63;5104220;28;20222;-76
2023/04/09 10:51:05;;;;;;;10.35;4.15;;;;;;;14.38;52.10;94787.75;5101794;28;20230;-74
2023/04/09 10:53:32;;;;;;;7.25;5.70;;;;;;;14.87;50.53;94778.22;5087042;28;20320;-76
2023/04/09 10:56:00;;;;;;;9.18;6.13;;;;;;;14.58;51.73;94775.91;5093352;28;20194;-74
2023/04/09 10:58:27;;;;;;;7.60;5.78;;;;;;;14.48;51.17;94771.75;5105092;28;20205;-75
2023/04/09 11:00:55;;;;;;;6.75;5.22;;;;;;;14.57;50.89;94774.31;5080838;28;20271;-76
2023/04/09 11:03:25;;;;;;;8.32;6.03;;;;;;;14.82;51.35;94775.75;5083660;28;20272;-76
2023/04/09 11:05:55;;;;;;;7.43;5.50;;;;;;;14.82;49.95;94769.50;5083944;28;20284;-74
2023/04/09 11:08:22;;;;;;;6.50;5.20;;;;;;;13.18;52.75;94779.50;5093492;28;20746;-74
2023/04/09 11:10:49;;;;;;;8.50;5.88;;;;;;;12.92;54.92;94777.09;5072021;28;20207;-77
2023/04/09 11:13:18;;;;;;;6.70;5.07;;;;;;;12.80;54.65;94775.94;5089182;28;20235;-77
2023/04/09 11:15:45;;;;;;;8.73;6.50;;;;;;;12.63;56.21;94770.69;5106836;28;20218;-76
2023/04/09 11:18:20;;;;;;;7.65;6.22;;;;;;;12.95;58.52;94770.97;5092116;28;20256;-75
2023/04/09 11:20:47;;;;;;;8.30;6.22;;;;;;;12.32;58.02;94759.50;5073029;28;20661;-74
2023/04/09 11:23:15;;;;;;;8.90;6.47;;;;;;;12.02;59.97;94772.44;5086566;28;20276;-74
2023/04/09 11:25:42;;;;;;;7.20;6.25;;;;;;;11.74;61.06;94772.16;5081084;28;20674;-77
2023/04/09 11:28:09;;;;;;;8.10;5.93;;;;;;;11.60;59.00;94777.03;5085346;28;20664;-79
2023/04/09 11:30:37;;;;;;;8.82;6.22;;;;;;;11.67;60.23;94771.88;5091108;28;20664;-73
2023/04/09 11:33:04;;;;;;;9.32;6.57;;;;;;;11.51;62.22;94773.56;5099839;28;20194;-74
2023/04/09 11:35:34;;;;;;;7.68;5.65;;;;;;;11.39;61.05;94756.09;5084911;28;20252;-74